sensor_id;sensor_type;location;lat;lon;timestamp;temperature;humidity
37984;DHT22;64625;50.882;4.376;2022-11-24T00:02:10;9.90;99.90
37984;DHT22;64625;50.882;4.376;2022-11-24T00:04:36;9.90;99.90
37984;DHT22;64625;50.882;4.376;2022-11-24T00:07:02;9.90;99.90
37984;DHT22;64625;50.882;4.376;2022-11-24T00:09:28;9.90;99.90
37984;DHT22;64625;50.882;4.376;2022-11-24T00:11:54;9.90;99.90
37984;DHT22;64625;50.882;4.376;2022-11-24T00:14:20;9.90;99.90
37984;DHT22;64625;50.882;4.376;2022-11-24T00:16:45;9.90;99.90
37984;DHT22;64625;50.882;4.376;2022-11-24T00:19:11;9.90;99.90
37984;DHT22;64625;50.882;4.376;2022-11-24T00:21:37;9.90;99.90
37984;DHT22;64625;50.882;4.376;2022-11-24T00:24:04;9.90;99.90
37984;DHT22;64625;50.882;4.376;2022-11-24T00:26:32;9.90;99.90
37984;DHT22;64625;50.882;4.376;2022-11-24T00:29:03;9.90;99.90
37984;DHT22;64625;50.882;4.376;2022-11-24T00:31:32;9.90;99.90
37984;DHT22;64625;50.882;4.376;2022-11-24T00:34:03;9.90;99.90
37984;DHT22;64625;50.882;4.376;2022-11-24T00:36:30;9.90;99.90
37984;DHT22;64625;50.882;4.376;2022-11-24T00:39:02;9.90;99.90
37984;DHT22;64625;50.882;4.376;2022-11-24T00:41:29;9.90;99.90
37984;DHT22;64625;50.882;4.376;2022-11-24T00:43:56;9.90;99.90
37984;DHT22;64625;50.882;4.376;2022-11-24T00:46:22;9.90;99.90
37984;DHT22;64625;50.882;4.376;2022-11-24T00:48:50;9.90;99.90
37984;DHT22;64625;50.882;4.376;2022-11-24T00:51:17;9.90;99.90
37984;DHT22;64625;50.882;4.376;2022-11-24T00:53:46;9.90;99.90
37984;DHT22;64625;50.882;4.376;2022-11-24T00:56:12;9.90;99.90
37984;DHT22;64625;50.882;4.376;2022-11-24T00:58:38;9.90;99.90
37984;DHT22;64625;50.882;4.376;2022-11-24T01:01:38;9.90;99.90
37984;DHT22;64625;50.882;4.376;2022-11-24T01:03:58;9.90;99.90
37984;DHT22;64625;50.882;4.376;2022-11-24T01:06:26;9.90;99.90
37984;DHT22;64625;50.882;4.376;2022-11-24T01:08:52;9.90;99.90
37984;DHT22;64625;50.882;4.376;2022-11-24T01:11:24;9.90;99.90
37984;DHT22;64625;50.882;4.376;2022-11-24T01:13:57;10.00;99.90
37984;DHT22;64625;50.882;4.376;2022-11-24T01:16:31;10.00;99.90
37984;DHT22;64625;50.882;4.376;2022-11-24T01:18:58;10.00;99.90
37984;DHT22;64625;50.882;4.376;2022-11-24T01:21:27;10.00;99.90
37984;DHT22;64625;50.882;4.376;2022-11-24T01:23:53;9.90;99.90
37984;DHT22;64625;50.882;4.376;2022-11-24T01:26:21;9.90;99.90
37984;DHT22;64625;50.882;4.376;2022-11-24T01:28:46;10.00;99.90
37984;DHT22;64625;50.882;4.376;2022-11-24T01:31:16;9.90;99.90
37984;DHT22;64625;50.882;4.376;2022-11-24T01:33:42;9.90;99.90
37984;DHT22;64625;50.882;4.376;2022-11-24T01:36:08;10.00;99.90
37984;DHT22;64625;50.882;4.376;2022-11-24T01:38:34;9.90;99.90
37984;DHT22;64625;50.882;4.376;2022-11-24T01:41:07;9.90;99.90
37984;DHT22;64625;50.882;4.376;2022-11-24T01:43:35;9.90;99.90
37984;DHT22;64625;50.882;4.376;2022-11-24T01:49:12;10.00;99.90
37984;DHT22;64625;50.882;4.376;2022-11-24T01:52:05;9.90;99.90
37984;DHT22;64625;50.882;4.376;2022-11-24T01:54:55;9.90;99.90
37984;DHT22;64625;50.882;4.376;2022-11-24T01:57:32;10.00;99.90
37984;DHT22;64625;50.882;4.376;2022-11-24T02:00:06;10.00;99.90
37984;DHT22;64625;50.882;4.376;2022-11-24T02:02:32;10.00;99.90
37984;DHT22;64625;50.882;4.376;2022-11-24T02:05:02;10.00;99.90
37984;DHT22;64625;50.882;4.376;2022-11-24T02:07:30;10.00;99.90
37984;DHT22;64625;50.882;4.376;2022-11-24T02:10:07;10.00;99.90
37984;DHT22;64625;50.882;4.376;2022-11-24T02:12:39;10.00;99.90
37984;DHT22;64625;50.882;4.376;2022-11-24T02:15:08;10.00;99.90
37984;DHT22;64625;50.882;4.376;2022-11-24T02:17:35;10.00;99.90
37984;DHT22;64625;50.882;4.376;2022-11-24T02:20:05;10.00;99.90
37984;DHT22;64625;50.882;4.376;2022-11-24T02:22:58;10.10;99.90
37984;DHT22;64625;50.882;4.376;2022-11-24T02:28:11;10.10;99.90
37984;DHT22;64625;50.882;4.376;2022-11-24T02:30:38;10.10;99.90
37984;DHT22;64625;50.882;4.376;2022-11-24T02:33:04;10.10;99.90
37984;DHT22;64625;50.882;4.376;2022-11-24T02:35:30;10.10;99.90
37984;DHT22;64625;50.882;4.376;2022-11-24T02:37:56;10.10;99.90
37984;DHT22;64625;50.882;4.376;2022-11-24T02:40:24;10.10;99.90
37984;DHT22;64625;50.882;4.376;2022-11-24T02:42:55;10.10;99.90
37984;DHT22;64625;50.882;4.376;2022-11-24T02:45:22;10.10;99.90
37984;DHT22;64625;50.882;4.376;2022-11-24T02:47:49;10.20;99.90
37984;DHT22;64625;50.882;4.376;2022-11-24T02:50:15;10.20;99.90
37984;DHT22;64625;50.882;4.376;2022-11-24T02:52:40;10.20;99.90
37984;DHT22;64625;50.882;4.376;2022-11-24T02:55:06;10.20;99.90
37984;DHT22;64625;50.882;4.376;2022-11-24T02:57:32;10.20;99.90
37984;DHT22;64625;50.882;4.376;2022-11-24T02:59:58;10.20;99.90
37984;DHT22;64625;50.882;4.376;2022-11-24T03:02:24;10.20;99.90
37984;DHT22;64625;50.882;4.376;2022-11-24T03:04:49;10.20;99.90
37984;DHT22;64625;50.882;4.376;2022-11-24T03:07:15;10.10;99.90
37984;DHT22;64625;50.882;4.376;2022-11-24T03:09:41;10.10;99.90
37984;DHT22;64625;50.882;4.376;2022-11-24T03:12:07;10.20;99.90
37984;DHT22;64625;50.882;4.376;2022-11-24T03:14:32;10.20;99.90
37984;DHT22;64625;50.882;4.376;2022-11-24T03:16:58;10.10;99.90
37984;DHT22;64625;50.882;4.376;2022-11-24T03:19:24;10.10;99.90
37984;DHT22;64625;50.882;4.376;2022-11-24T03:21:49;10.10;99.90
37984;DHT22;64625;50.882;4.376;2022-11-24T03:24:15;10.10;99.90
37984;DHT22;64625;50.882;4.376;2022-11-24T03:26:41;10.10;99.90
37984;DHT22;64625;50.882;4.376;2022-11-24T03:29:07;10.10;99.90
37984;DHT22;64625;50.882;4.376;2022-11-24T03:31:33;10.10;99.90
37984;DHT22;64625;50.882;4.376;2022-11-24T03:33:59;10.10;99.90
37984;DHT22;64625;50.882;4.376;2022-11-24T03:36:25;10.10;99.90
37984;DHT22;64625;50.882;4.376;2022-11-24T03:38:50;10.10;99.90
37984;DHT22;64625;50.882;4.376;2022-11-24T03:41:16;10.10;99.90
37984;DHT22;64625;50.882;4.376;2022-11-24T03:43:45;10.10;99.90
37984;DHT22;64625;50.882;4.376;2022-11-24T03:46:11;10.10;99.90
37984;DHT22;64625;50.882;4.376;2022-11-24T03:48:37;10.10;99.90
37984;DHT22;64625;50.882;4.376;2022-11-24T03:51:03;10.00;99.90
37984;DHT22;64625;50.882;4.376;2022-11-24T03:53:30;10.10;99.90
37984;DHT22;64625;50.882;4.376;2022-11-24T03:55:56;10.00;99.90
37984;DHT22;64625;50.882;4.376;2022-11-24T03:58:23;10.00;99.90
37984;DHT22;64625;50.882;4.376;2022-11-24T04:00:51;10.00;99.90
37984;DHT22;64625;50.882;4.376;2022-11-24T04:03:17;10.00;99.90
37984;DHT22;64625;50.882;4.376;2022-11-24T04:05:44;10.00;99.90
37984;DHT22;64625;50.882;4.376;2022-11-24T04:08:10;10.00;99.90
37984;DHT22;64625;50.882;4.376;2022-11-24T04:10:37;10.00;99.90
37984;DHT22;64625;50.882;4.376;2022-11-24T04:13:10;9.90;99.90
37984;DHT22;64625;50.882;4.376;2022-11-24T04:15:38;9.90;99.90
37984;DHT22;64625;50.882;4.376;2022-11-24T04:18:05;9.90;99.90
37984;DHT22;64625;50.882;4.376;2022-11-24T04:20:31;9.90;99.90
37984;DHT22;64625;50.882;4.376;2022-11-24T04:22:57;9.90;99.90
37984;DHT22;64625;50.882;4.376;2022-11-24T04:25:26;9.80;99.90
37984;DHT22;64625;50.882;4.376;2022-11-24T04:27:53;9.80;99.90
37984;DHT22;64625;50.882;4.376;2022-11-24T04:30:20;9.80;99.90
37984;DHT22;64625;50.882;4.376;2022-11-24T04:32:46;9.80;99.90
37984;DHT22;64625;50.882;4.376;2022-11-24T04:35:12;9.80;99.90
37984;DHT22;64625;50.882;4.376;2022-11-24T04:37:38;9.80;99.90
37984;DHT22;64625;50.882;4.376;2022-11-24T04:40:05;9.70;99.90
37984;DHT22;64625;50.882;4.376;2022-11-24T04:42:31;9.70;99.90
37984;DHT22;64625;50.882;4.376;2022-11-24T04:44:59;9.70;99.90
37984;DHT22;64625;50.882;4.376;2022-11-24T04:47:25;9.70;99.90
37984;DHT22;64625;50.882;4.376;2022-11-24T04:49:52;9.70;99.90
37984;DHT22;64625;50.882;4.376;2022-11-24T04:52:19;9.70;99.90
37984;DHT22;64625;50.882;4.376;2022-11-24T04:54:46;9.60;99.90
37984;DHT22;64625;50.882;4.376;2022-11-24T04:57:24;9.60;99.90
37984;DHT22;64625;50.882;4.376;2022-11-24T04:59:50;9.60;99.90
37984;DHT22;64625;50.882;4.376;2022-11-24T05:02:17;9.60;99.90
37984;DHT22;64625;50.882;4.376;2022-11-24T05:04:44;9.60;99.90
37984;DHT22;64625;50.882;4.376;2022-11-24T05:07:14;9.60;99.90
37984;DHT22;64625;50.882;4.376;2022-11-24T05:09:39;9.50;99.90
37984;DHT22;64625;50.882;4.376;2022-11-24T05:12:24;9.50;99.90
37984;DHT22;64625;50.882;4.376;2022-11-24T05:14:50;9.50;99.90
37984;DHT22;64625;50.882;4.376;2022-11-24T05:17:16;9.40;99.90
37984;DHT22;64625;50.882;4.376;2022-11-24T05:19:42;9.40;99.90
37984;DHT22;64625;50.882;4.376;2022-11-24T05:22:08;9.40;99.90
37984;DHT22;64625;50.882;4.376;2022-11-24T05:24:33;9.40;99.90
37984;DHT22;64625;50.882;4.376;2022-11-24T05:26:59;9.40;99.90
37984;DHT22;64625;50.882;4.376;2022-11-24T05:29:25;9.40;99.90
37984;DHT22;64625;50.882;4.376;2022-11-24T05:31:53;9.30;99.90
37984;DHT22;64625;50.882;4.376;2022-11-24T05:34:19;9.30;99.90
37984;DHT22;64625;50.882;4.376;2022-11-24T05:36:45;9.30;99.90
37984;DHT22;64625;50.882;4.376;2022-11-24T05:39:36;9.30;99.90
37984;DHT22;64625;50.882;4.376;2022-11-24T05:42:04;9.20;99.90
37984;DHT22;64625;50.882;4.376;2022-11-24T05:44:50;9.20;99.90
37984;DHT22;64625;50.882;4.376;2022-11-24T05:47:16;9.20;99.90
37984;DHT22;64625;50.882;4.376;2022-11-24T05:49:42;9.20;99.90
37984;DHT22;64625;50.882;4.376;2022-11-24T05:52:08;9.20;99.90
37984;DHT22;64625;50.882;4.376;2022-11-24T05:54:34;9.20;99.90
37984;DHT22;64625;50.882;4.376;2022-11-24T05:57:00;9.20;99.90
37984;DHT22;64625;50.882;4.376;2022-11-24T05:59:25;9.20;99.90
37984;DHT22;64625;50.882;4.376;2022-11-24T06:01:51;9.20;99.90
37984;DHT22;64625;50.882;4.376;2022-11-24T06:04:17;9.20;99.90
37984;DHT22;64625;50.882;4.376;2022-11-24T06:06:46;9.20;99.90
37984;DHT22;64625;50.882;4.376;2022-11-24T06:09:12;9.10;99.90
37984;DHT22;64625;50.882;4.376;2022-11-24T06:11:38;9.20;99.90
37984;DHT22;64625;50.882;4.376;2022-11-24T06:14:03;9.10;99.90
37984;DHT22;64625;50.882;4.376;2022-11-24T06:16:29;9.10;99.90
37984;DHT22;64625;50.882;4.376;2022-11-24T06:18:55;9.10;99.90
37984;DHT22;64625;50.882;4.376;2022-11-24T06:21:21;9.10;99.90
37984;DHT22;64625;50.882;4.376;2022-11-24T06:23:47;9.10;99.90
37984;DHT22;64625;50.882;4.376;2022-11-24T06:26:13;9.10;99.90
37984;DHT22;64625;50.882;4.376;2022-11-24T06:28:39;9.10;99.90
37984;DHT22;64625;50.882;4.376;2022-11-24T06:31:05;9.10;99.90
37984;DHT22;64625;50.882;4.376;2022-11-24T06:33:35;9.10;99.90
37984;DHT22;64625;50.882;4.376;2022-11-24T06:36:03;9.00;99.90
37984;DHT22;64625;50.882;4.376;2022-11-24T06:38:30;9.00;99.90
37984;DHT22;64625;50.882;4.376;2022-11-24T06:41:03;9.00;99.90
37984;DHT22;64625;50.882;4.376;2022-11-24T06:43:31;9.00;99.90
37984;DHT22;64625;50.882;4.376;2022-11-24T06:45:57;9.00;99.90
37984;DHT22;64625;50.882;4.376;2022-11-24T06:48:24;9.00;99.90
37984;DHT22;64625;50.882;4.376;2022-11-24T06:50:50;9.00;99.90
37984;DHT22;64625;50.882;4.376;2022-11-24T06:53:18;8.90;99.90
37984;DHT22;64625;50.882;4.376;2022-11-24T06:55:45;8.90;99.90
37984;DHT22;64625;50.882;4.376;2022-11-24T06:58:11;8.90;99.90
37984;DHT22;64625;50.882;4.376;2022-11-24T07:00:38;8.90;99.90
37984;DHT22;64625;50.882;4.376;2022-11-24T07:03:04;8.90;99.90
37984;DHT22;64625;50.882;4.376;2022-11-24T07:05:29;8.90;99.90
37984;DHT22;64625;50.882;4.376;2022-11-24T07:07:57;8.90;99.90
37984;DHT22;64625;50.882;4.376;2022-11-24T07:10:23;8.90;99.90
37984;DHT22;64625;50.882;4.376;2022-11-24T07:12:49;8.90;99.90
37984;DHT22;64625;50.882;4.376;2022-11-24T07:15:15;8.80;99.90
37984;DHT22;64625;50.882;4.376;2022-11-24T07:17:40;8.80;99.90
37984;DHT22;64625;50.882;4.376;2022-11-24T07:20:08;8.80;99.90
37984;DHT22;64625;50.882;4.376;2022-11-24T07:22:35;8.80;99.90
37984;DHT22;64625;50.882;4.376;2022-11-24T07:25:01;8.80;99.90
37984;DHT22;64625;50.882;4.376;2022-11-24T07:27:32;8.80;99.90
37984;DHT22;64625;50.882;4.376;2022-11-24T07:29:58;8.80;99.90
37984;DHT22;64625;50.882;4.376;2022-11-24T07:32:24;8.80;99.90
37984;DHT22;64625;50.882;4.376;2022-11-24T07:37:57;8.80;99.90
37984;DHT22;64625;50.882;4.376;2022-11-24T07:40:24;8.80;99.90
37984;DHT22;64625;50.882;4.376;2022-11-24T07:42:51;8.80;99.90
37984;DHT22;64625;50.882;4.376;2022-11-24T07:45:17;8.80;99.90
37984;DHT22;64625;50.882;4.376;2022-11-24T07:47:43;8.70;99.90
37984;DHT22;64625;50.882;4.376;2022-11-24T07:50:10;8.70;99.90
37984;DHT22;64625;50.882;4.376;2022-11-24T07:52:37;8.70;99.90
37984;DHT22;64625;50.882;4.376;2022-11-24T07:55:03;8.70;99.90
37984;DHT22;64625;50.882;4.376;2022-11-24T07:57:29;8.70;99.90
37984;DHT22;64625;50.882;4.376;2022-11-24T07:59:55;8.70;99.90
37984;DHT22;64625;50.882;4.376;2022-11-24T08:02:22;8.70;99.90
37984;DHT22;64625;50.882;4.376;2022-11-24T08:04:47;8.70;99.90
37984;DHT22;64625;50.882;4.376;2022-11-24T08:07:13;8.70;99.90
37984;DHT22;64625;50.882;4.376;2022-11-24T08:09:39;8.70;99.90
37984;DHT22;64625;50.882;4.376;2022-11-24T08:12:05;8.70;99.90
37984;DHT22;64625;50.882;4.376;2022-11-24T08:14:31;8.70;99.90
37984;DHT22;64625;50.882;4.376;2022-11-24T08:16:57;8.70;99.90
37984;DHT22;64625;50.882;4.376;2022-11-24T08:19:23;8.70;99.90
37984;DHT22;64625;50.882;4.376;2022-11-24T08:21:49;8.70;99.90
37984;DHT22;64625;50.882;4.376;2022-11-24T08:24:15;8.80;99.90
37984;DHT22;64625;50.882;4.376;2022-11-24T08:26:42;8.80;99.90
37984;DHT22;64625;50.882;4.376;2022-11-24T08:29:08;8.80;99.90
37984;DHT22;64625;50.882;4.376;2022-11-24T08:31:36;8.80;99.90
37984;DHT22;64625;50.882;4.376;2022-11-24T08:34:04;8.80;99.90
37984;DHT22;64625;50.882;4.376;2022-11-24T08:36:30;8.80;99.90
37984;DHT22;64625;50.882;4.376;2022-11-24T08:38:58;8.80;99.90
37984;DHT22;64625;50.882;4.376;2022-11-24T08:41:25;8.80;99.90
37984;DHT22;64625;50.882;4.376;2022-11-24T08:43:52;8.80;99.90
37984;DHT22;64625;50.882;4.376;2022-11-24T08:46:18;8.90;99.90
37984;DHT22;64625;50.882;4.376;2022-11-24T08:48:49;8.90;99.90
37984;DHT22;64625;50.882;4.376;2022-11-24T08:51:17;8.90;99.90
37984;DHT22;64625;50.882;4.376;2022-11-24T08:53:43;8.90;99.90
37984;DHT22;64625;50.882;4.376;2022-11-24T08:56:10;8.90;99.90
37984;DHT22;64625;50.882;4.376;2022-11-24T08:58:37;9.00;99.90
37984;DHT22;64625;50.882;4.376;2022-11-24T09:01:11;9.00;99.90
37984;DHT22;64625;50.882;4.376;2022-11-24T09:03:38;9.00;99.90
37984;DHT22;64625;50.882;4.376;2022-11-24T09:06:05;9.00;99.90
37984;DHT22;64625;50.882;4.376;2022-11-24T09:08:32;9.00;99.90
37984;DHT22;64625;50.882;4.376;2022-11-24T09:11:09;9.10;99.90
37984;DHT22;64625;50.882;4.376;2022-11-24T09:13:36;9.10;99.90
37984;DHT22;64625;50.882;4.376;2022-11-24T09:16:07;9.20;99.90
37984;DHT22;64625;50.882;4.376;2022-11-24T09:18:33;9.20;99.90
37984;DHT22;64625;50.882;4.376;2022-11-24T09:21:18;9.30;99.90
37984;DHT22;64625;50.882;4.376;2022-11-24T09:23:46;9.30;99.90
37984;DHT22;64625;50.882;4.376;2022-11-24T09:26:26;9.30;99.90
37984;DHT22;64625;50.882;4.376;2022-11-24T09:28:53;9.40;99.90
37984;DHT22;64625;50.882;4.376;2022-11-24T09:31:24;9.40;99.90
37984;DHT22;64625;50.882;4.376;2022-11-24T09:33:51;9.50;99.90
37984;DHT22;64625;50.882;4.376;2022-11-24T09:36:17;9.50;99.90
37984;DHT22;64625;50.882;4.376;2022-11-24T09:38:44;9.60;99.90
37984;DHT22;64625;50.882;4.376;2022-11-24T09:44:06;9.70;99.90
37984;DHT22;64625;50.882;4.376;2022-11-24T09:49:08;9.80;99.90
37984;DHT22;64625;50.882;4.376;2022-11-24T09:51:36;9.80;99.90
37984;DHT22;64625;50.882;4.376;2022-11-24T09:54:15;9.90;99.90
37984;DHT22;64625;50.882;4.376;2022-11-24T09:56:42;9.90;99.90
37984;DHT22;64625;50.882;4.376;2022-11-24T09:59:19;10.00;99.90
37984;DHT22;64625;50.882;4.376;2022-11-24T10:01:46;10.00;99.90
37984;DHT22;64625;50.882;4.376;2022-11-24T10:06:50;10.20;99.90
37984;DHT22;64625;50.882;4.376;2022-11-24T10:09:23;10.20;99.90
37984;DHT22;64625;50.882;4.376;2022-11-24T10:12:15;10.20;99.90
37984;DHT22;64625;50.882;4.376;2022-11-24T10:26:18;10.50;99.90
37984;DHT22;64625;50.882;4.376;2022-11-24T10:28:54;10.60;99.90
37984;DHT22;64625;50.882;4.376;2022-11-24T10:31:42;10.60;99.90
37984;DHT22;64625;50.882;4.376;2022-11-24T10:34:16;10.60;99.90
37984;DHT22;64625;50.882;4.376;2022-11-24T10:45:10;10.80;99.90
37984;DHT22;64625;50.882;4.376;2022-11-24T10:47:37;10.80;99.90
37984;DHT22;64625;50.882;4.376;2022-11-24T10:50:23;10.90;99.90
37984;DHT22;64625;50.882;4.376;2022-11-24T10:52:59;11.00;99.90
37984;DHT22;64625;50.882;4.376;2022-11-24T10:58:25;11.00;99.90
37984;DHT22;64625;50.882;4.376;2022-11-24T11:00:52;11.10;99.90
37984;DHT22;64625;50.882;4.376;2022-11-24T11:03:31;11.10;99.90
37984;DHT22;64625;50.882;4.376;2022-11-24T11:08:45;11.20;99.90
37984;DHT22;64625;50.882;4.376;2022-11-24T11:11:28;11.20;99.90
37984;DHT22;64625;50.882;4.376;2022-11-24T11:13:59;11.30;99.90
37984;DHT22;64625;50.882;4.376;2022-11-24T11:16:33;11.30;99.90
37984;DHT22;64625;50.882;4.376;2022-11-24T11:19:00;11.40;99.90
37984;DHT22;64625;50.882;4.376;2022-11-24T11:21:35;11.40;99.90
37984;DHT22;64625;50.882;4.376;2022-11-24T11:24:13;11.50;99.90
37984;DHT22;64625;50.882;4.376;2022-11-24T11:26:41;11.50;99.90
37984;DHT22;64625;50.882;4.376;2022-11-24T11:31:36;11.60;99.90
37984;DHT22;64625;50.882;4.376;2022-11-24T11:37:07;11.70;99.90
37984;DHT22;64625;50.882;4.376;2022-11-24T11:39:33;11.70;99.90
37984;DHT22;64625;50.882;4.376;2022-11-24T11:45:04;11.80;99.90
37984;DHT22;64625;50.882;4.376;2022-11-24T11:47:41;11.90;99.90
37984;DHT22;64625;50.882;4.376;2022-11-24T11:50:23;12.00;99.90
37984;DHT22;64625;50.882;4.376;2022-11-24T11:55:40;12.10;99.90
37984;DHT22;64625;50.882;4.376;2022-11-24T12:08:56;12.40;99.90
37984;DHT22;64625;50.882;4.376;2022-11-24T12:14:16;12.40;99.90
37984;DHT22;64625;50.882;4.376;2022-11-24T12:16:45;12.50;99.90
37984;DHT22;64625;50.882;4.376;2022-11-24T12:33:34;12.50;99.90
37984;DHT22;64625;50.882;4.376;2022-11-24T12:43:50;12.70;99.90
37984;DHT22;64625;50.882;4.376;2022-11-24T12:46:40;12.70;99.90
37984;DHT22;64625;50.882;4.376;2022-11-24T12:49:34;12.80;99.90
37984;DHT22;64625;50.882;4.376;2022-11-24T12:52:14;12.80;99.90
37984;DHT22;64625;50.882;4.376;2022-11-24T12:54:41;12.90;99.90
37984;DHT22;64625;50.882;4.376;2022-11-24T12:57:29;12.80;99.90
37984;DHT22;64625;50.882;4.376;2022-11-24T13:00:04;12.90;99.90
37984;DHT22;64625;50.882;4.376;2022-11-24T13:02:53;12.90;99.90
37984;DHT22;64625;50.882;4.376;2022-11-24T13:05:29;12.90;99.90
37984;DHT22;64625;50.882;4.376;2022-11-24T13:08:00;12.90;99.90
37984;DHT22;64625;50.882;4.376;2022-11-24T13:13:25;13.00;99.90
37984;DHT22;64625;50.882;4.376;2022-11-24T13:18:41;13.00;99.90
37984;DHT22;64625;50.882;4.376;2022-11-24T13:40:00;12.90;99.90
37984;DHT22;64625;50.882;4.376;2022-11-24T13:42:28;12.90;99.90
37984;DHT22;64625;50.882;4.376;2022-11-24T13:44:56;12.90;99.90
37984;DHT22;64625;50.882;4.376;2022-11-24T13:47:43;12.90;99.90
37984;DHT22;64625;50.882;4.376;2022-11-24T13:50:13;12.90;99.90
37984;DHT22;64625;50.882;4.376;2022-11-24T13:55:24;12.80;99.90
37984;DHT22;64625;50.882;4.376;2022-11-24T13:57:55;12.80;99.90
37984;DHT22;64625;50.882;4.376;2022-11-24T14:02:50;12.70;99.90
37984;DHT22;64625;50.882;4.376;2022-11-24T14:05:18;12.70;99.90
37984;DHT22;64625;50.882;4.376;2022-11-24T14:07:48;12.70;99.90
37984;DHT22;64625;50.882;4.376;2022-11-24T14:10:23;12.70;99.90
37984;DHT22;64625;50.882;4.376;2022-11-24T14:16:00;12.70;99.90
37984;DHT22;64625;50.882;4.376;2022-11-24T14:18:26;12.60;99.90
37984;DHT22;64625;50.882;4.376;2022-11-24T14:20:55;12.60;99.90
37984;DHT22;64625;50.882;4.376;2022-11-24T14:23:21;12.60;99.90
37984;DHT22;64625;50.882;4.376;2022-11-24T14:25:48;12.60;99.90
37984;DHT22;64625;50.882;4.376;2022-11-24T14:28:24;12.60;99.90
37984;DHT22;64625;50.882;4.376;2022-11-24T14:31:08;12.60;99.90
37984;DHT22;64625;50.882;4.376;2022-11-24T14:33:42;12.60;99.90
37984;DHT22;64625;50.882;4.376;2022-11-24T14:36:14;12.60;99.90
37984;DHT22;64625;50.882;4.376;2022-11-24T14:38:40;12.60;99.90
37984;DHT22;64625;50.882;4.376;2022-11-24T14:41:21;12.50;99.90
37984;DHT22;64625;50.882;4.376;2022-11-24T14:46:49;12.50;99.90
37984;DHT22;64625;50.882;4.376;2022-11-24T14:49:19;12.50;99.90
37984;DHT22;64625;50.882;4.376;2022-11-24T14:51:56;12.50;99.90
37984;DHT22;64625;50.882;4.376;2022-11-24T14:54:24;12.40;99.90
37984;DHT22;64625;50.882;4.376;2022-11-24T14:57:04;12.40;99.90
37984;DHT22;64625;50.882;4.376;2022-11-24T14:59:33;12.40;99.90
37984;DHT22;64625;50.882;4.376;2022-11-24T15:02:01;12.40;99.90
37984;DHT22;64625;50.882;4.376;2022-11-24T15:04:28;12.40;99.90
37984;DHT22;64625;50.882;4.376;2022-11-24T15:09:54;12.30;99.90
37984;DHT22;64625;50.882;4.376;2022-11-24T15:12:41;12.30;99.90
37984;DHT22;64625;50.882;4.376;2022-11-24T15:17:46;12.20;99.90
37984;DHT22;64625;50.882;4.376;2022-11-24T15:20:19;12.20;99.90
37984;DHT22;64625;50.882;4.376;2022-11-24T15:22:45;12.20;99.90
37984;DHT22;64625;50.882;4.376;2022-11-24T15:25:32;12.20;99.90
37984;DHT22;64625;50.882;4.376;2022-11-24T15:27:59;12.10;99.90
37984;DHT22;64625;50.882;4.376;2022-11-24T15:30:26;12.10;99.90
37984;DHT22;64625;50.882;4.376;2022-11-24T15:32:53;12.10;99.90
37984;DHT22;64625;50.882;4.376;2022-11-24T15:35:20;12.10;99.90
37984;DHT22;64625;50.882;4.376;2022-11-24T15:37:48;12.10;99.90
37984;DHT22;64625;50.882;4.376;2022-11-24T15:40:14;12.10;99.90
37984;DHT22;64625;50.882;4.376;2022-11-24T15:42:41;12.00;99.90
37984;DHT22;64625;50.882;4.376;2022-11-24T15:45:08;12.00;99.90
37984;DHT22;64625;50.882;4.376;2022-11-24T15:47:35;12.00;99.90
37984;DHT22;64625;50.882;4.376;2022-11-24T15:50:01;12.00;99.90
37984;DHT22;64625;50.882;4.376;2022-11-24T15:52:27;11.90;99.90
37984;DHT22;64625;50.882;4.376;2022-11-24T15:54:55;11.90;99.90
37984;DHT22;64625;50.882;4.376;2022-11-24T15:57:21;11.90;99.90
37984;DHT22;64625;50.882;4.376;2022-11-24T15:59:48;11.90;99.90
37984;DHT22;64625;50.882;4.376;2022-11-24T16:02:13;11.80;99.90
37984;DHT22;64625;50.882;4.376;2022-11-24T16:04:39;11.80;99.90
37984;DHT22;64625;50.882;4.376;2022-11-24T16:07:15;11.80;99.90
37984;DHT22;64625;50.882;4.376;2022-11-24T16:09:41;11.70;99.90
37984;DHT22;64625;50.882;4.376;2022-11-24T16:12:07;11.70;99.90
37984;DHT22;64625;50.882;4.376;2022-11-24T16:14:35;11.70;99.90
37984;DHT22;64625;50.882;4.376;2022-11-24T16:17:01;11.70;99.90
37984;DHT22;64625;50.882;4.376;2022-11-24T16:19:28;11.70;99.90
37984;DHT22;64625;50.882;4.376;2022-11-24T16:21:53;11.70;99.90
37984;DHT22;64625;50.882;4.376;2022-11-24T16:24:19;11.60;99.90
37984;DHT22;64625;50.882;4.376;2022-11-24T16:26:45;11.60;99.90
37984;DHT22;64625;50.882;4.376;2022-11-24T16:29:11;11.60;99.90
37984;DHT22;64625;50.882;4.376;2022-11-24T16:31:36;11.50;99.90
37984;DHT22;64625;50.882;4.376;2022-11-24T16:34:02;11.50;99.90
37984;DHT22;64625;50.882;4.376;2022-11-24T16:36:28;11.50;99.90
37984;DHT22;64625;50.882;4.376;2022-11-24T16:38:54;11.50;99.90
37984;DHT22;64625;50.882;4.376;2022-11-24T16:41:20;11.50;99.90
37984;DHT22;64625;50.882;4.376;2022-11-24T16:43:46;11.40;99.90
37984;DHT22;64625;50.882;4.376;2022-11-24T16:46:22;11.40;99.90
37984;DHT22;64625;50.882;4.376;2022-11-24T16:48:50;11.40;99.90
37984;DHT22;64625;50.882;4.376;2022-11-24T16:51:18;11.40;99.90
37984;DHT22;64625;50.882;4.376;2022-11-24T16:53:44;11.40;99.90
37984;DHT22;64625;50.882;4.376;2022-11-24T16:56:10;11.40;99.90
37984;DHT22;64625;50.882;4.376;2022-11-24T16:58:38;11.30;99.90
37984;DHT22;64625;50.882;4.376;2022-11-24T17:01:05;11.30;99.90
37984;DHT22;64625;50.882;4.376;2022-11-24T17:03:32;11.30;99.90
37984;DHT22;64625;50.882;4.376;2022-11-24T17:06:02;11.20;99.90
37984;DHT22;64625;50.882;4.376;2022-11-24T17:08:36;11.20;99.90
37984;DHT22;64625;50.882;4.376;2022-11-24T17:13:38;11.10;99.90
37984;DHT22;64625;50.882;4.376;2022-11-24T17:16:05;11.10;99.90
37984;DHT22;64625;50.882;4.376;2022-11-24T17:18:31;11.10;99.90
37984;DHT22;64625;50.882;4.376;2022-11-24T17:20:58;11.10;99.90
37984;DHT22;64625;50.882;4.376;2022-11-24T17:23:25;11.10;99.90
37984;DHT22;64625;50.882;4.376;2022-11-24T17:25:51;11.00;99.90
37984;DHT22;64625;50.882;4.376;2022-11-24T17:28:17;11.00;99.90
37984;DHT22;64625;50.882;4.376;2022-11-24T17:30:43;11.00;99.90
37984;DHT22;64625;50.882;4.376;2022-11-24T17:33:09;11.00;99.90
37984;DHT22;64625;50.882;4.376;2022-11-24T17:35:35;11.00;99.90
37984;DHT22;64625;50.882;4.376;2022-11-24T17:38:02;10.90;99.90
37984;DHT22;64625;50.882;4.376;2022-11-24T17:40:28;10.90;99.90
37984;DHT22;64625;50.882;4.376;2022-11-24T17:42:57;10.90;99.90
37984;DHT22;64625;50.882;4.376;2022-11-24T17:45:28;10.90;99.90
37984;DHT22;64625;50.882;4.376;2022-11-24T17:47:55;10.90;99.90
37984;DHT22;64625;50.882;4.376;2022-11-24T17:50:21;10.90;99.90
37984;DHT22;64625;50.882;4.376;2022-11-24T17:52:47;10.80;99.90
37984;DHT22;64625;50.882;4.376;2022-11-24T17:55:13;10.80;99.90
37984;DHT22;64625;50.882;4.376;2022-11-24T17:57:39;10.80;99.90
37984;DHT22;64625;50.882;4.376;2022-11-24T18:00:06;10.80;99.90
37984;DHT22;64625;50.882;4.376;2022-11-24T18:02:32;10.80;99.90